Time;durP1;ratioP1;P1;durP2;ratioP2;P2;SDS_P1;SDS_P2;PMS_P1;PMS_P2;Temp;Humidity;BMP_temperature;BMP_pressure;BME280_temperature;BME280_humidity;BME280_pressure;Samples;Min_cycle;Max_cycle;Signal;HPM_P1;HPM_P2
2022/05/29 00:02:06;;;;;;;;;4.00;3.60;;;;;15.12;43.04;98470.03;6288679;27;97405;-65
2022/05/29 00:05:12;;;;;;;;;5.00;4.00;;;;;15.14;43.13;98462.47;6288563;27;97059;-66
2022/05/29 00:08:20;;;;;;;;;4.00;4.00;;;;;15.13;43.69;98468.97;6269421;27;96920;-66
2022/05/29 00:11:23;;;;;;;;;4.20;4.20;;;;;15.09;44.19;98470.56;6267257;27;96824;-66
2022/05/29 00:14:27;;;;;;;;;6.00;6.00;;;;;15.00;44.51;98463.19;6270612;27;97645;-65
2022/05/29 00:17:30;;;;;;;;;5.00;5.00;;;;;14.48;44.51;98387.88;6288263;27;96734;-66
2022/05/29 00:20:36;;;;;;;;;7.00;6.00;;;;;14.93;44.31;98468.00;6288423;27;96626;-65
2022/05/29 00:23:43;;;;;;;;;6.80;6.00;;;;;14.87;44.57;98464.41;6269474;27;96769;-66
2022/05/29 00:26:46;;;;;;;;;6.40;6.00;;;;;14.81;44.70;98457.31;6267552;27;97770;-66
2022/05/29 00:29:50;;;;;;;;;7.00;5.00;;;;;14.71;45.22;98466.19;6269307;27;96961;-66
2022/05/29 00:32:53;;;;;;;;;5.60;4.60;;;;;14.63;45.04;98466.66;6266267;27;96700;-65
2022/05/29 00:35:58;;;;;;;;;6.00;5.40;;;;;14.60;45.45;98477.22;6266113;27;97395;-65
2022/05/29 00:39:02;;;;;;;;;5.00;5.00;;;;;14.53;45.79;98484.75;6268847;27;96799;-65
2022/05/29 00:42:07;;;;;;;;;8.00;7.00;;;;;14.46;46.23;98481.44;6287866;27;97464;-65
2022/05/29 00:45:18;;;;;;;;;8.00;7.00;;;;;14.36;46.55;98482.16;6287622;27;96614;-66
2022/05/29 00:48:22;;;;;;;;;6.00;6.00;;;;;14.29;46.84;98484.19;6288435;27;96839;-66
2022/05/29 00:51:27;;;;;;;;;8.00;7.00;;;;;14.25;46.94;98480.38;6287154;27;96660;-65
2022/05/29 00:54:37;;;;;;;;;7.00;6.00;;;;;14.14;47.48;98479.44;6286219;27;97843;-66
2022/05/29 00:57:45;;;;;;;;;8.00;6.60;;;;;14.07;47.49;98484.25;6286918;27;96779;-66
2022/05/29 01:00:49;;;;;;;;;6.00;6.00;;;;;13.96;47.45;98474.34;6287423;27;97358;-65
2022/05/29 01:03:53;;;;;;;;;6.20;6.00;;;;;13.87;47.58;98476.69;6268671;27;96998;-65
2022/05/29 01:06:57;;;;;;;;;7.00;6.40;;;;;13.82;47.59;98473.94;6286871;27;96750;-65
2022/05/29 01:10:02;;;;;;;;;6.40;5.80;;;;;13.71;47.86;98469.44;6269396;27;97122;-66
2022/05/29 01:13:15;;;;;;;;;5.20;5.20;;;;;13.62;48.26;98481.78;6268589;27;97415;-65
2022/05/29 01:16:27;;;;;;;;;7.00;6.20;;;;;13.55;48.49;98480.31;6285142;27;97254;-65
2022/05/29 01:20:01;;;;;;;;;8.40;8.00;;;;;13.35;49.06;98480.88;6251666;27;98890;-64
2022/05/29 01:23:31;;;;;;;;;7.00;6.00;;;;;13.30;49.21;98478.91;6285571;27;97423;-66
2022/05/29 01:26:57;;;;;;;;;8.00;6.00;;;;;13.26;49.74;98474.25;6246079;27;97790;-67
2022/05/29 01:30:08;;;;;;;;;6.75;6.00;;;;;13.18;49.92;98480.09;6286290;27;97189;-65
2022/05/29 01:33:22;;;;;;;;;6.40;6.00;;;;;13.11;50.01;98487.50;6268099;27;99947;-65
2022/05/29 01:36:31;;;;;;;;;7.00;6.00;;;;;13.02;50.26;98485.22;6285665;27;97424;-65
2022/05/29 01:39:50;;;;;;;;;7.60;7.00;;;;;13.02;50.07;98481.72;6254129;27;96434;-66
2022/05/29 01:43:03;;;;;;;;;8.00;7.00;;;;;12.89;50.53;98490.16;6282880;27;97240;-65
2022/05/29 01:46:12;;;;;;;;;6.60;6.60;;;;;12.88;50.49;98481.22;6286585;27;97268;-68
2022/05/29 01:49:27;;;;;;;;;8.00;7.00;;;;;12.94;50.18;98482.94;6279894;27;98007;-65
2022/05/29 01:52:36;;;;;;;;;8.40;8.00;;;;;13.03;50.12;98483.34;6283983;27;97683;-64
2022/05/29 01:55:44;;;;;;;;;8.00;7.00;;;;;13.20;49.59;98481.47;6277524;27;97386;-65
2022/05/29 01:58:55;;;;;;;;;8.00;7.00;;;;;13.28;49.63;98483.75;6286719;27;97482;-66
2022/05/29 02:02:06;;;;;;;;;8.00;7.00;;;;;13.35;49.24;98478.97;6267987;27;97143;-65
2022/05/29 02:05:12;;;;;;;;;7.00;7.00;;;;;13.38;49.27;98488.50;6250388;27;97191;-65
2022/05/29 02:08:20;;;;;;;;;7.00;6.00;;;;;13.39;49.18;98490.94;6284618;27;96565;-65
2022/05/29 02:11:26;;;;;;;;;8.00;6.00;;;;;13.42;49.08;98487.75;6286376;27;96695;-65
2022/05/29 02:14:35;;;;;;;;;8.00;6.80;;;;;13.39;49.10;98488.25;6286331;27;97603;-65
2022/05/29 02:17:43;;;;;;;;;6.60;5.00;;;;;13.43;49.08;98486.69;6286393;27;97579;-67
2022/05/29 02:20:51;;;;;;;;;6.00;5.67;;;;;13.36;49.49;98498.75;6268284;27;97268;-66
2022/05/29 02:23:59;;;;;;;;;9.00;7.00;;;;;13.40;48.95;98497.19;6264553;27;97777;-66
2022/05/29 02:27:07;;;;;;;;;7.00;6.00;;;;;13.33;48.97;98499.25;6258894;27;98034;-65
2022/05/29 02:30:11;;;;;;;;;7.25;7.00;;;;;13.37;48.88;98497.69;6265025;27;96497;-65
2022/05/29 02:33:23;;;;;;;;;6.00;6.00;;;;;13.32;49.22;98503.03;6285484;27;96742;-64
2022/05/29 02:36:36;;;;;;;;;7.00;7.00;;;;;13.31;49.37;98498.69;6266705;27;97012;-65
2022/05/29 02:39:50;;;;;;;;;9.00;7.40;;;;;13.37;49.10;98503.94;6267113;27;96646;-66
2022/05/29 02:43:03;;;;;;;;;7.25;6.25;;;;;13.42;49.01;98516.72;6265522;27;96430;-65
2022/05/29 02:46:15;;;;;;;;;6.00;6.00;;;;;13.46;49.09;98515.16;6286100;27;97080;-66
2022/05/29 02:49:26;;;;;;;;;7.00;6.00;;;;;13.43;49.02;98507.53;6267214;27;97112;-64
2022/05/29 02:52:30;;;;;;;;;8.00;7.00;;;;;13.44;49.07;98509.16;6282857;27;96619;-67
2022/05/29 02:55:33;;;;;;;;;8.00;7.00;;;;;13.47;49.00;98508.66;6285593;27;96710;-65
2022/05/29 02:58:39;;;;;;;;;9.00;8.00;;;;;13.55;49.04;98515.53;6286342;27;96697;-65
2022/05/29 03:01:49;;;;;;;;;8.00;7.00;;;;;13.56;48.87;98526.13;6288703;27;97501;-66
2022/05/29 03:05:08;;;;;;;;;8.00;7.25;;;;;13.58;48.87;98521.28;6287820;27;96655;-65
2022/05/29 03:08:42;;;;;;;;;9.00;7.00;;;;;13.64;48.81;98520.28;6266971;27;97905;-65
2022/05/29 03:11:47;;;;;;;;;8.00;7.00;;;;;13.67;48.59;98532.50;6245801;27;97085;-67
2022/05/29 03:15:03;;;;;;;;;8.00;7.25;;;;;13.69;48.57;98520.34;6271855;27;97419;-64
2022/05/29 03:18:24;;;;;;;;;6.60;6.60;;;;;13.77;48.38;98514.50;6268785;27;96672;-66
2022/05/29 03:21:41;;;;;;;;;7.00;7.00;;;;;13.87;48.13;98516.53;6289116;27;98004;-68
2022/05/29 03:24:52;;;;;;;;;7.00;6.00;;;;;13.92;47.90;98507.63;6288605;27;97246;-66
2022/05/29 03:27:59;;;;;;;;;8.00;7.50;;;;;14.01;47.64;98514.25;6288347;27;97055;-68
2022/05/29 03:31:09;;;;;;;;;7.67;6.00;;;;;14.13;47.83;98506.78;6265694;27;97459;-66
2022/05/29 03:34:14;;;;;;;;;6.00;5.25;;;;;14.15;47.43;98507.38;6279643;27;98442;-66
2022/05/29 03:37:19;;;;;;;;;6.00;5.00;;;;;14.22;47.24;98508.00;6289151;27;96525;-65
2022/05/29 03:40:24;;;;;;;;;7.00;7.00;;;;;14.29;47.14;98509.44;6288191;27;97081;-66
2022/05/29 03:43:27;;;;;;;;;8.00;6.00;;;;;14.40;47.02;98515.00;6289276;27;97471;-64
2022/05/29 03:46:31;;;;;;;;;7.80;6.20;;;;;14.45;46.71;98515.88;6289232;27;97604;-65
2022/05/29 03:49:34;;;;;;;;;6.00;5.00;;;;;14.46;46.49;98508.56;6287221;27;97529;-65
2022/05/29 03:52:42;;;;;;;;;7.00;6.00;;;;;14.53;46.28;98512.69;6288633;27;96397;-65
2022/05/29 03:55:45;;;;;;;;;6.00;6.00;;;;;14.64;46.11;98506.28;6269403;27;97824;-66
2022/05/29 03:58:48;;;;;;;;;7.00;7.00;;;;;14.70;45.94;98515.31;6286380;27;97454;-65
2022/05/29 04:01:51;;;;;;;;;6.60;6.00;;;;;14.84;45.67;98512.97;6257059;27;96823;-66
2022/05/29 04:04:55;;;;;;;;;5.20;5.00;;;;;14.91;45.69;98506.25;6288523;27;96732;-65
2022/05/29 04:14:44;;;;;;;;;6.00;5.00;;;;;15.25;44.85;98522.28;6258490;27;96931;-64
2022/05/29 04:17:47;;;;;;;;;5.00;4.00;;;;;15.40;44.75;98523.19;6282862;27;97463;-64
2022/05/29 04:20:52;;;;;;;;;5.25;5.00;;;;;15.50;44.70;98517.81;6285087;27;96668;-66
2022/05/29 04:23:57;;;;;;;;;4.00;3.00;;;;;15.59;44.64;98518.97;6282880;27;97488;-65
2022/05/29 04:27:00;;;;;;;;;6.00;4.00;;;;;15.69;44.62;98522.84;6280983;27;96788;-66
2022/05/29 04:30:05;;;;;;;;;4.75;4.75;;;;;15.76;44.33;98518.00;6282417;27;97027;-66
2022/05/29 04:33:09;;;;;;;;;5.00;4.40;;;;;15.72;44.41;98520.44;6261868;27;97724;-66
2022/05/29 04:36:12;;;;;;;;;4.20;4.00;;;;;15.76;44.47;98523.44;6283288;27;97545;-66
2022/05/29 04:39:17;;;;;;;;;4.00;4.00;;;;;15.96;44.50;98526.25;6277557;27;96809;-68
2022/05/29 04:42:20;;;;;;;;;4.60;4.20;;;;;15.96;44.40;98523.53;6267473;27;99494;-67
2022/05/29 04:45:23;;;;;;;;;4.50;4.00;;;;;16.00;44.54;98528.19;6280238;27;96630;-67
2022/05/29 04:48:27;;;;;;;;;6.00;5.00;;;;;16.01;44.66;98526.28;6286070;27;97653;-66
2022/05/29 04:51:30;;;;;;;;;5.60;5.40;;;;;16.03;44.65;98524.09;6286101;27;98415;-66
2022/05/29 04:54:35;;;;;;;;;4.40;4.00;;;;;16.24;44.53;98522.28;6266345;27;96680;-65
2022/05/29 04:57:39;;;;;;;;;4.25;4.25;;;;;16.43;43.91;98523.41;6267644;27;97584;-65
2022/05/29 05:00:42;;;;;;;;;5.75;5.00;;;;;16.61;43.53;98528.41;6255958;27;99815;-66
2022/05/29 05:03:46;;;;;;;;;5.00;5.00;;;;;16.71;43.42;98516.72;6264225;27;97498;-65
2022/05/29 05:06:49;;;;;;;;;5.00;4.00;;;;;16.81;43.08;98533.06;6286736;27;97409;-65
2022/05/29 05:09:55;;;;;;;;;6.00;5.00;;;;;16.90;42.83;98528.72;6284040;27;98304;-65
2022/05/29 05:12:59;;;;;;;;;8.00;7.00;;;;;17.00;42.75;98534.19;6285258;27;96766;-65
2022/05/29 05:16:08;;;;;;;;;6.75;6.00;;;;;17.11;42.83;98538.50;6283113;27;97808;-65
2022/05/29 05:19:11;;;;;;;;;5.00;5.00;;;;;17.24;42.78;98529.00;6284177;27;98752;-65
2022/05/29 05:22:14;;;;;;;;;5.00;5.00;;;;;17.43;42.58;98527.34;6284599;27;96645;-66
2022/05/29 05:25:20;;;;;;;;;7.00;6.00;;;;;17.48;42.20;98530.06;6284717;27;97458;-64
2022/05/29 05:28:23;;;;;;;;;5.50;5.00;;;;;17.39;41.93;98526.25;6285882;27;97538;-68
2022/05/29 05:31:26;;;;;;;;;5.60;5.40;;;;;17.61;41.47;98523.25;6265828;27;96980;-65
2022/05/29 05:34:31;;;;;;;;;6.00;6.00;;;;;17.72;40.89;98522.94;6266604;27;96613;-66
2022/05/29 05:37:36;;;;;;;;;5.00;4.67;;;;;17.82;40.28;98519.38;6285081;27;97504;-65
2022/05/29 05:40:40;;;;;;;;;5.40;5.00;;;;;17.96;40.10;98522.31;6283434;27;96732;-65
2022/05/29 05:43:44;;;;;;;;;5.80;4.80;;;;;17.98;39.92;98525.59;6266951;27;97175;-65
2022/05/29 05:46:49;;;;;;;;;7.00;6.00;;;;;17.96;39.48;98520.41;6285908;27;98014;-67
2022/05/29 05:49:53;;;;;;;;;5.00;5.00;;;;;18.00;40.08;98520.66;6283115;27;96703;-66
2022/05/29 05:52:56;;;;;;;;;5.00;5.00;;;;;17.94;40.02;98524.50;6250120;27;97015;-66
2022/05/29 05:56:04;;;;;;;;;5.00;5.00;;;;;18.13;39.80;98531.00;6263353;27;97325;-66
2022/05/29 05:59:08;;;;;;;;;5.00;3.80;;;;;18.33;38.90;98519.97;6266770;27;98529;-65
2022/05/29 06:02:12;;;;;;;;;6.00;6.00;;;;;18.37;38.12;98522.97;6285224;27;98542;-67
2022/05/29 06:05:16;;;;;;;;;5.00;5.00;;;;;18.51;38.33;98515.81;6283198;27;97556;-65
2022/05/29 06:08:20;;;;;;;;;6.00;5.60;;;;;18.63;37.61;98518.19;6250515;27;97213;-67
2022/05/29 06:11:25;;;;;;;;;5.00;5.00;;;;;18.66;37.23;98515.75;6284206;27;97541;-65
2022/05/29 06:14:28;;;;;;;;;4.00;4.00;;;;;18.73;37.24;98515.41;6253959;27;97720;-67
2022/05/29 06:17:32;;;;;;;;;5.00;5.00;;;;;18.61;37.59;98521.22;6260227;27;96528;-66
2022/05/29 06:20:35;;;;;;;;;3.00;3.00;;;;;18.70;37.40;98516.81;6267325;27;99416;-66
2022/05/29 06:23:40;;;;;;;;;4.20;3.60;;;;;18.90;37.52;98518.56;6265369;27;97812;-66
2022/05/29 06:26:44;;;;;;;;;5.00;5.00;;;;;19.14;36.91;98510.47;6259568;27;97881;-67
2022/05/29 06:29:48;;;;;;;;;4.40;4.00;;;;;19.23;36.47;98515.03;6275203;27;96719;-65
2022/05/29 06:32:51;;;;;;;;;3.00;3.00;;;;;19.20;35.16;98512.88;6272693;27;97196;-66
2022/05/29 06:35:54;;;;;;;;;4.40;4.00;;;;;19.18;35.46;98520.53;6269283;27;99508;-65
2022/05/29 06:38:59;;;;;;;;;4.80;4.80;;;;;19.29;35.89;98521.25;6279456;27;96641;-65
2022/05/29 06:42:05;;;;;;;;;4.60;4.60;;;;;19.36;36.11;98522.53;6261717;27;97596;-65
2022/05/29 06:45:10;;;;;;;;;6.00;4.25;;;;;19.52;35.94;98525.97;6266509;27;96621;-66
2022/05/29 06:48:14;;;;;;;;;3.80;3.80;;;;;19.64;35.55;98520.97;6288695;27;97596;-65
2022/05/29 06:51:21;;;;;;;;;6.00;5.00;;;;;19.77;34.99;98514.78;6271868;27;99564;-65
2022/05/29 06:54:26;;;;;;;;;3.00;3.00;;;;;19.83;35.11;98515.56;6288888;27;97522;-65
2022/05/29 06:57:43;;;;;;;;;3.60;3.60;;;;;20.05;34.69;98513.09;6252645;27;97971;-67
2022/05/29 07:07:33;;;;;;;;;4.00;4.00;;;;;20.01;35.08;98525.72;6287847;27;97215;-66
2022/05/29 07:10:36;;;;;;;;;4.00;3.60;;;;;20.00;33.89;98523.28;6271392;27;98187;-65
2022/05/29 07:13:41;;;;;;;;;3.00;3.00;;;;;20.02;34.96;98519.16;6274052;27;96549;-65
2022/05/29 07:16:45;;;;;;;;;3.00;3.00;;;;;20.12;34.53;98518.22;6278058;27;97994;-67
2022/05/29 07:19:48;;;;;;;;;4.00;3.00;;;;;20.13;34.26;98508.91;6288463;27;97439;-67
2022/05/29 07:22:52;;;;;;;;;4.00;4.00;;;;;20.33;34.41;98506.72;6284040;27;97523;-67
2022/05/29 07:25:57;;;;;;;;;4.00;4.00;;;;;20.60;34.60;98503.34;6269488;27;98670;-66
2022/05/29 07:29:02;;;;;;;;;4.00;3.20;;;;;20.50;33.68;98502.69;6288327;27;97093;-67
2022/05/29 07:32:06;;;;;;;;;4.00;3.40;;;;;20.56;34.76;98499.59;6283358;27;97089;-67
2022/05/29 07:35:10;;;;;;;;;4.40;4.40;;;;;20.61;33.45;98491.28;6288036;27;97073;-66
2022/05/29 07:38:14;;;;;;;;;4.00;4.00;;;;;20.71;33.63;98488.41;6289085;27;97220;-65
2022/05/29 07:44:40;;;;;;;;;3.00;3.00;;;;;21.40;32.57;98485.94;6285773;27;96696;-65
2022/05/29 07:47:45;;;;;;;;;3.00;3.00;;;;;21.79;33.23;98486.28;6288140;27;96630;-65
2022/05/29 07:50:49;;;;;;;;;3.40;3.00;;;;;22.13;32.14;98496.06;6254272;27;97064;-67
2022/05/29 07:53:53;;;;;;;;;2.00;2.00;;;;;21.97;29.82;98501.88;6252996;27;96653;-66
2022/05/29 07:56:56;;;;;;;;;4.00;3.00;;;;;21.82;30.05;98501.31;6287516;27;97235;-65
2022/05/29 08:00:01;;;;;;;;;3.00;3.00;;;;;21.88;30.47;98489.94;6279260;27;97688;-66
2022/05/29 08:03:13;;;;;;;;;5.00;3.40;;;;;22.14;30.37;98500.44;6286301;27;96671;-65
2022/05/29 08:06:17;;;;;;;;;2.00;2.00;;;;;21.92;29.14;98503.84;6287871;27;96647;-65
2022/05/29 08:09:20;;;;;;;;;3.00;2.00;;;;;21.85;29.53;98503.44;6286742;27;96926;-66
2022/05/29 08:12:24;;;;;;;;;3.00;3.00;;;;;21.98;29.40;98498.00;6287482;27;97176;-67
2022/05/29 08:15:33;;;;;;;;;3.00;3.00;;;;;22.33;29.44;98496.41;6267803;27;97866;-67
2022/05/29 08:18:36;;;;;;;;;5.40;3.60;;;;;22.58;29.13;98494.25;6260749;27;99816;-67
2022/05/29 08:21:40;;;;;;;;;3.00;3.00;;;;;22.79;28.51;98487.19;6284772;27;96734;-66
2022/05/29 08:31:26;;;;;;;;;3.00;3.00;;;;;23.13;27.91;98484.69;6264157;27;97652;-67
2022/05/29 08:34:30;;;;;;;;;3.00;3.00;;;;;23.21;27.96;98488.66;6282709;27;97249;-67
2022/05/29 08:37:36;;;;;;;;;2.00;2.00;;;;;23.28;28.14;98486.25;6258607;27;97782;-67
2022/05/29 08:40:45;;;;;;;;;4.00;3.60;;;;;22.96;27.96;98481.84;6263596;27;97779;-65
2022/05/29 08:44:01;;;;;;;;;3.00;2.00;;;;;23.01;28.04;98473.47;6266134;27;97819;-65
2022/05/29 08:47:06;;;;;;;;;3.00;3.00;;;;;22.95;27.64;98468.41;6263827;27;97577;-65
2022/05/29 08:50:15;;;;;;;;;4.00;3.00;;;;;22.99;27.09;98472.97;6287631;27;97182;-67
2022/05/29 08:53:33;;;;;;;;;3.67;3.67;;;;;23.25;28.26;98464.88;6279991;27;97491;-65
2022/05/29 08:56:44;;;;;;;;;3.00;3.00;;;;;23.73;28.13;98470.50;6263352;27;99425;-66
2022/05/29 08:59:51;;;;;;;;;2.00;2.00;;;;;23.91;26.69;98463.91;6269198;27;97963;-66
2022/05/29 09:03:16;;;;;;;;;3.00;3.00;;;;;23.89;26.59;98463.44;6287128;27;97034;-66
2022/05/29 09:06:24;;;;;;;;;3.00;3.00;;;;;24.10;27.65;98460.88;6286614;27;96607;-68
2022/05/29 09:09:38;;;;;;;;;4.00;3.00;;;;;24.26;25.46;98459.34;6284648;27;97668;-66
2022/05/29 09:12:45;;;;;;;;;2.00;2.00;;;;;24.40;26.29;98446.22;6287430;27;98129;-68
2022/05/29 09:15:51;;;;;;;;;3.00;3.00;;;;;24.83;27.02;98453.69;6286915;27;97538;-68
2022/05/29 09:19:09;;;;;;;;;2.00;2.00;;;;;25.24;27.12;98455.94;6275818;27;97240;-66
2022/05/29 09:22:21;;;;;;;;;4.00;4.00;;;;;25.62;26.63;98458.78;6278258;27;97943;-67
2022/05/29 09:25:31;;;;;;;;;3.00;3.00;;;;;25.82;26.10;98461.63;6286894;27;96664;-67
2022/05/29 09:28:38;;;;;;;;;4.00;4.00;;;;;25.75;24.66;98457.78;6269999;27;96383;-67
2022/05/29 09:31:42;;;;;;;;;4.00;4.00;;;;;25.60;25.85;98456.38;6287892;27;96651;-66
2022/05/29 09:34:57;;;;;;;;;2.00;2.00;;;;;25.80;25.45;98446.56;6282345;27;96756;-66
2022/05/29 09:38:06;;;;;;;;;2.00;2.00;;;;;26.09;25.54;98448.50;6273901;27;96684;-66
2022/05/29 09:41:17;;;;;;;;;3.00;3.00;;;;;26.40;26.44;98448.16;6295922;27;97053;-67
2022/05/29 09:44:22;;;;;;;;;4.00;3.25;;;;;26.77;25.34;98424.31;6268332;27;98377;-65
2022/05/29 09:50:58;;;;;;;;;3.00;2.00;;;;;27.07;23.89;98432.16;6287136;27;97059;-67
2022/05/29 09:54:06;;;;;;;;;6.00;5.00;;;;;27.13;24.51;98436.34;6284074;27;97487;-66
2022/05/29 09:57:13;;;;;;;;;3.00;3.00;;;;;27.48;23.75;98431.22;6266189;27;97148;-66
2022/05/29 10:00:27;;;;;;;;;4.00;4.00;;;;;27.72;23.51;98426.91;6285729;27;96858;-68
2022/05/29 10:03:43;;;;;;;;;3.75;3.00;;;;;27.92;23.07;98392.72;6287017;27;97335;-66
2022/05/29 10:06:53;;;;;;;;;3.00;2.00;;;;;28.27;22.88;98396.66;6284467;27;96713;-67
2022/05/29 10:10:02;;;;;;;;;2.00;2.00;;;;;28.55;22.84;98388.34;6289813;27;97277;-67
2022/05/29 10:13:05;;;;;;;;;3.00;2.50;;;;;28.70;22.33;98386.81;6293287;27;97300;-66
2022/05/29 10:16:09;;;;;;;;;2.40;2.40;;;;;28.86;21.45;98387.69;6275885;27;97928;-64
2022/05/29 10:19:15;;;;;;;;;2.60;2.60;;;;;28.96;20.47;98387.19;6272601;27;97401;-66
2022/05/29 10:22:27;;;;;;;;;2.00;2.00;;;;;28.72;20.16;98370.66;6290243;27;96770;-63
2022/05/29 10:25:34;;;;;;;;;2.00;2.00;;;;;28.60;21.06;98376.22;6277478;27;98255;-63
2022/05/29 10:28:39;;;;;;;;;3.00;2.33;;;;;28.69;21.65;98376.84;6294922;27;97474;-65
2022/05/29 10:31:43;;;;;;;;;2.00;2.00;;;;;28.77;20.33;98374.00;6275167;27;96942;-64
2022/05/29 10:34:47;;;;;;;;;2.00;2.00;;;;;28.85;21.01;98364.69;6293952;27;96812;-66
2022/05/29 10:37:53;;;;;;;;;2.00;2.00;;;;;28.91;21.45;98365.25;6293146;27;97538;-68
2022/05/29 10:40:59;;;;;;;;;2.50;2.50;;;;;29.15;19.56;98367.06;6293740;27;97708;-66
2022/05/29 10:44:02;;;;;;;;;3.00;2.60;;;;;29.38;20.92;98372.84;6294566;27;97490;-65
2022/05/29 10:47:09;;;;;;;;;2.25;2.00;;;;;29.79;20.83;98375.06;6275274;27;96834;-65
2022/05/29 10:50:18;;;;;;;;;2.00;2.00;;;;;30.17;19.00;98370.81;6259486;27;98342;-65
2022/05/29 10:53:47;;;;;;;;;2.00;1.00;;;;;30.46;17.71;98367.50;6293920;27;97136;-64
2022/05/29 10:57:08;;;;;;;;;2.80;2.20;;;;;30.43;18.39;98369.03;6294370;27;97444;-65
2022/05/29 11:00:31;;;;;;;;;12.60;8.60;;;;;30.15;17.54;98370.38;6283096;27;97635;-68
2022/05/29 11:03:57;;;;;;;;;2.40;2.00;;;;;29.58;17.88;98374.53;6290002;27;98288;-65
2022/05/29 11:07:26;;;;;;;;;3.00;3.00;;;;;29.53;19.46;98367.28;6265674;27;96665;-65
2022/05/29 11:10:47;;;;;;;;;3.00;3.00;;;;;29.37;17.87;98366.47;6256088;27;97734;-67
2022/05/29 11:14:07;;;;;;;;;3.00;3.00;;;;;29.22;18.48;98370.81;6289018;27;97526;-70
2022/05/29 11:17:20;;;;;;;;;1.60;1.60;;;;;29.22;18.93;98368.06;6269214;27;97886;-65
2022/05/29 11:20:55;;;;;;;;;1.00;1.00;;;;;29.17;18.69;98371.13;6287196;27;97951;-68
2022/05/29 11:24:16;;;;;;;;;2.25;2.25;;;;;29.10;16.97;98361.78;6251174;27;96640;-65
2022/05/29 11:27:37;;;;;;;;;2.00;2.00;;;;;28.90;16.60;98362.81;6286147;27;97463;-65
2022/05/29 11:30:59;;;;;;;;;2.00;2.00;;;;;28.94;17.68;98360.94;6287498;27;97486;-66
2022/05/29 11:34:25;;;;;;;;;2.00;2.00;;;;;28.68;17.95;98348.34;6289889;27;97964;-66
2022/05/29 11:38:07;;;;;;;;;1.20;1.00;;;;;28.32;16.60;98349.28;6287940;27;97254;-67
2022/05/29 11:41:18;;;;;;;;;2.00;2.00;;;;;28.01;18.37;98349.06;6280593;27;96588;-67
2022/05/29 11:44:29;;;;;;;;;2.00;2.00;;;;;28.04;19.02;98342.03;6254159;27;97885;-65
2022/05/29 11:51:18;;;;;;;;;2.00;1.60;;;;;28.35;17.89;98339.44;6289690;27;96647;-68
2022/05/29 11:54:30;;;;;;;;;2.00;2.00;;;;;28.31;18.77;98342.09;6282238;27;97482;-66
2022/05/29 11:57:41;;;;;;;;;2.20;2.20;;;;;28.30;20.37;98334.94;6284872;27;97969;-69
2022/05/29 12:00:57;;;;;;;;;3.00;3.00;;;;;28.37;19.56;98337.13;6270161;27;100044;-70
2022/05/29 12:04:09;;;;;;;;;3.00;2.50;;;;;28.43;19.05;98327.41;6270643;27;96815;-71
2022/05/29 12:07:19;;;;;;;;;2.00;2.00;;;;;28.62;18.56;98316.47;6271296;27;96788;-68
2022/05/29 12:10:24;;;;;;;;;2.00;1.80;;;;;28.73;18.96;98311.25;6287295;27;97908;-65
2022/05/29 12:13:32;;;;;;;;;3.20;2.60;;;;;28.68;18.67;98300.38;6249901;27;97439;-65
2022/05/29 12:16:42;;;;;;;;;1.00;1.00;;;;;28.80;19.94;98298.34;6253390;27;99561;-67
2022/05/29 12:19:50;;;;;;;;;3.00;3.00;;;;;29.00;19.88;98290.16;6270614;27;97526;-65
2022/05/29 12:22:57;;;;;;;;;3.00;2.60;;;;;29.35;17.80;98285.53;6287195;27;96555;-67
2022/05/29 12:26:06;;;;;;;;;3.00;3.00;;;;;29.18;17.42;98278.31;6288557;27;96924;-68
2022/05/29 12:29:16;;;;;;;;;3.50;3.00;;;;;28.88;18.85;98276.38;6272837;27;99443;-66
2022/05/29 12:32:23;;;;;;;;;3.50;3.00;;;;;28.97;18.90;98282.53;6287712;27;97385;-68
2022/05/29 12:35:35;;;;;;;;;3.00;2.00;;;;;29.04;18.68;98293.81;6263665;27;97786;-66
2022/05/29 12:38:51;;;;;;;;;3.00;3.00;;;;;29.03;18.69;98295.78;6263631;27;99573;-67
2022/05/29 12:42:36;;;;;;;;;3.00;3.00;;;;;28.99;19.38;98305.97;6281190;27;97929;-67
2022/05/29 12:45:52;;;;;;;;;2.00;2.00;;;;;28.87;19.34;98306.06;6287528;27;97329;-68
2022/05/29 12:49:23;;;;;;;;;2.00;2.00;;;;;28.81;18.54;98296.41;6287908;27;97481;-67
2022/05/29 12:52:40;;;;;;;;;2.00;2.00;;;;;28.60;17.98;98291.03;6265833;27;98553;-68
2022/05/29 12:56:14;;;;;;;;;3.00;2.40;;;;;28.13;17.96;98298.41;6267000;27;96877;-68
2022/05/29 12:59:47;;;;;;;;;3.00;3.00;;;;;27.30;19.79;98274.81;6228174;27;96903;-66
2022/05/29 13:03:15;;;;;;;;;1.00;1.00;;;;;26.95;20.11;98306.81;6262731;27;97192;-68
2022/05/29 13:06:59;;;;;;;;;3.20;3.00;;;;;26.70;21.03;98303.97;6283685;27;97493;-69
2022/05/29 13:10:16;;;;;;;;;1.75;1.00;;;;;26.31;21.84;98301.75;6281499;27;96715;-69
2022/05/29 13:13:24;;;;;;;;;3.00;2.00;;;;;26.20;21.10;98300.50;6281851;27;97261;-68
2022/05/29 13:16:30;;;;;;;;;4.00;4.00;;;;;26.17;22.70;98301.19;6281807;27;98163;-68
2022/05/29 13:19:58;;;;;;;;;5.00;4.00;;;;;26.12;22.39;98304.16;6277686;27;96701;-72
2022/05/29 13:23:06;;;;;;;;;2.00;2.00;;;;;26.11;22.15;98303.34;6266730;27;96584;-72
2022/05/29 13:26:25;;;;;;;;;3.00;2.40;;;;;26.11;22.21;98294.25;6283642;27;98410;-73
2022/05/29 13:29:42;;;;;;;;;3.00;2.00;;;;;26.10;22.34;98295.41;6261772;27;96627;-72
2022/05/29 13:32:45;;;;;;;;;2.00;2.00;;;;;26.43;22.66;98301.00;6265276;27;96797;-69
2022/05/29 13:35:48;;;;;;;;;2.00;2.00;;;;;26.83;21.86;98292.97;6285460;27;96611;-69
2022/05/29 13:38:56;;;;;;;;;2.00;1.20;;;;;27.11;21.97;98289.22;6281883;27;97046;-72
2022/05/29 13:42:02;;;;;;;;;2.00;2.00;;;;;27.09;20.60;98287.94;6263433;27;97117;-71
2022/05/29 13:45:42;;;;;;;;;3.00;2.00;;;;;26.55;20.63;98293.56;6283299;27;97421;-66
2022/05/29 13:49:07;;;;;;;;;2.00;2.00;;;;;26.18;20.80;98291.78;6259460;27;96883;-71
2022/05/29 13:52:17;;;;;;;;;3.00;3.00;;;;;26.11;21.01;98275.72;6277772;27;96928;-70
2022/05/29 13:55:24;;;;;;;;;2.20;2.20;;;;;26.04;21.03;98274.66;6248629;27;97729;-69
2022/05/29 14:05:29;;;;;;;;;2.00;2.00;;;;;26.14;22.19;98277.03;6279233;27;97922;-69
2022/05/29 14:08:47;;;;;;;;;2.50;2.00;;;;;25.91;21.91;98272.97;6265797;27;97505;-68
2022/05/29 14:11:56;;;;;;;;;2.00;2.00;;;;;25.44;22.75;98273.91;6285300;27;98000;-70
2022/05/29 14:15:19;;;;;;;;;3.00;3.00;;;;;24.96;23.05;98277.09;6286884;27;96814;-70
2022/05/29 14:18:29;;;;;;;;;2.00;2.00;;;;;24.88;24.09;98266.06;6283970;27;96632;-69
2022/05/29 14:21:53;;;;;;;;;2.00;2.00;;;;;24.93;24.66;98269.44;6261567;27;96888;-71
2022/05/29 14:25:31;;;;;;;;;1.00;1.00;;;;;24.89;24.10;98262.97;6280955;27;97915;-71
2022/05/29 14:29:00;;;;;;;;;1.00;1.00;;;;;24.58;24.08;98265.19;6249464;27;97443;-71
2022/05/29 14:32:18;;;;;;;;;3.00;2.00;;;;;24.37;24.56;98262.28;6253146;27;96795;-70
2022/05/29 14:35:50;;;;;;;;;2.00;2.00;;;;;24.16;24.23;98256.66;6274382;27;98668;-68
2022/05/29 14:39:16;;;;;;;;;1.00;1.00;;;;;24.34;24.93;98260.19;6258722;27;97439;-68
2022/05/29 14:42:24;;;;;;;;;1.20;1.20;;;;;24.32;24.38;98258.91;6283056;27;96808;-66
2022/05/29 14:45:31;;;;;;;;;2.40;2.00;;;;;24.08;24.57;98251.13;6281350;27;96624;-68
2022/05/29 14:48:41;;;;;;;;;2.00;2.00;;;;;23.88;24.49;98260.84;6267150;27;96536;-72
2022/05/29 14:52:00;;;;;;;;;2.00;2.00;;;;;23.74;25.48;98260.19;6247233;27;97349;-70
2022/05/29 14:55:11;;;;;;;;;2.00;2.00;;;;;23.60;25.69;98267.78;6274723;27;97918;-72
2022/05/29 14:58:27;;;;;;;;;3.00;2.00;;;;;23.51;25.46;98254.00;6288612;27;96863;-69
2022/05/29 15:01:39;;;;;;;;;2.00;2.00;;;;;23.31;25.74;98249.88;6268169;27;100495;-72
2022/05/29 15:04:43;;;;;;;;;1.40;1.40;;;;;23.18;25.62;98252.75;6269335;27;97320;-72
2022/05/29 15:11:16;;;;;;;;;3.00;3.00;;;;;23.07;26.13;98234.94;6290181;27;96871;-69
2022/05/29 15:14:23;;;;;;;;;2.00;2.00;;;;;23.05;26.14;98246.25;6268698;27;97004;-71
2022/05/29 15:17:28;;;;;;;;;3.00;3.00;;;;;22.92;25.94;98243.63;6288865;27;97225;-70
2022/05/29 15:24:11;;;;;;;;;2.20;2.00;;;;;22.65;26.82;98231.69;6289672;27;96703;-69
2022/05/29 15:27:18;;;;;;;;;2.40;2.40;;;;;22.79;26.95;98240.66;6267810;27;97875;-69
2022/05/29 15:30:30;;;;;;;;;3.00;3.00;;;;;22.78;26.81;98230.78;6288700;27;97423;-72
2022/05/29 15:33:51;;;;;;;;;3.00;2.75;;;;;22.48;27.08;98218.66;6286766;27;97490;-71
2022/05/29 15:37:13;;;;;;;;;3.00;3.00;;;;;22.61;27.22;98227.13;6266251;27;98289;-70
2022/05/29 15:40:34;;;;;;;;;3.00;3.00;;;;;22.55;27.35;98225.63;6261270;27;97722;-70